Home > Products > Valid Products > TAF

000
FTUS43 KLMK 010500
TAFLEX
TAF
KLEX 010520Z 0106/0206 04006KT P6SM SKC
     FM011400 12005KT P6SM SKC=



000
FTUS43 KLMK 010500
TAFBWG
TAF
KBWG 010520Z 0106/0206 03004KT P6SM SKC
     FM011500 12006KT P6SM SKC=



000
FTUS43 KLMK 010500
TAFSDF
TAF
KSDF 010520Z 0106/0212 02004KT P6SM SKC
     FM011500 13006KT P6SM SCT250=



000
FTUS43 KLMK 312300
TAFBWG
TAF
KBWG 312320Z 0100/0124 32010G15KT P6SM SKC
     FM010200 03003KT P6SM SKC=



000
FTUS43 KLMK 312300
TAFLEX
TAF
KLEX 312320Z 0100/0124 32012G18KT P6SM SKC
     FM010200 03005KT P6SM SKC=



000
FTUS43 KLMK 311900 AAA
TAFSDF
TAF AMD
KSDF 311907Z 3119/0124 29015G24KT P6SM SKC
     FM312300 34008KT P6SM SKC
     FM010000 01003KT P6SM SKC=



000
FTUS43 KLMK 311900 AAA
TAFLEX
TAF AMD
KLEX 311907Z 3119/0118 28017G26KT P6SM SKC
     FM312000 31012KT P6SM SKC
     FM010300 03005KT P6SM SKC=



000
FTUS43 KLMK 311900 AAA
TAFSDF
TAF AMD
KSDF 311907Z 3119/0124 29015G24KT P6SM SKC
     FM312300 34008KT P6SM SKC
     FM010000 01003KT P6SM SKC=



000
FTUS43 KLMK 311700
TAFSDF
TAF
KSDF 311722Z 3118/0124 27014G24KT P6SM FEW200
     FM311900 30012G20KT P6SM SKC
     FM312300 34008KT P6SM SKC
     FM010000 01003KT P6SM SKC=



000
FTUS43 KLMK 311700
TAFLEX
TAF
KLEX 311722Z 3118/0118 26014G24KT P6SM SKC
     FM312000 31012KT P6SM SKC
     FM010300 03005KT P6SM SKC=



000
FTUS43 KLMK 311700
TAFBWG
TAF
KBWG 311722Z 3118/0118 26012G20KT P6SM SCT200
     FM312100 31009KT P6SM SKC
     FM010300 03003KT P6SM SKC=



000
FTUS43 KLMK 311700
TAFBWG
TAF
KBWG 311722Z 3118/0118 26012G20KT P6SM SCT200
     FM312100 31009KT P6SM SKC
     FM010300 03003KT P6SM SKC=



000
FTUS43 KLMK 311700
TAFLEX
TAF
KLEX 311722Z 3118/0118 26014G24KT P6SM SKC
     FM312000 31012KT P6SM SKC
     FM010300 03005KT P6SM SKC=



000
FTUS43 KLMK 311700
TAFSDF
TAF
KSDF 311722Z 3118/0124 27014G24KT P6SM FEW200
     FM311900 30012G20KT P6SM SKC
     FM312300 34008KT P6SM SKC
     FM010000 01003KT P6SM SKC=



000
FTUS43 KLMK 311400 AAA
TAFSDF
TAF AMD
KSDF 311401Z 3114/0118 25014G24KT P6SM FEW200
     FM311900 29012KT P6SM SKC
     FM010000 01003KT P6SM SKC=



000
FTUS43 KLMK 311400 AAA
TAFSDF
TAF AMD
KSDF 311401Z 3114/0118 25014G24KT P6SM FEW200
     FM311900 29012KT P6SM SKC
     FM010000 01003KT P6SM SKC=



000
FTUS43 KLMK 311400 AAA
TAFLEX
TAF AMD
KLEX 311400Z 3114/0112 25016G27KT P6SM SKC
     FM312100 31010KT P6SM SKC
     FM010300 03005KT P6SM SKC=



000
FTUS43 KLMK 311400 AAA
TAFLEX
TAF AMD
KLEX 311400Z 3114/0112 25016G27KT P6SM SKC
     FM312100 31010KT P6SM SKC
     FM010300 03005KT P6SM SKC=



000
FTUS43 KLMK 311100
TAFSDF
TAF
KSDF 311120Z 3112/0118 22006KT P6SM SCT150
     FM311500 26013G22KT P6SM SKC
     FM311900 31008KT P6SM SKC
     FM010000 01003KT P6SM SKC=



000
FTUS43 KLMK 311100
TAFBWG
TAF
KBWG 311120Z 3112/0112 23005KT P6SM SCT150
     FM311600 26012G20KT P6SM FEW050 FEW250
     FM312000 31006KT P6SM SKC
     FM010300 03003KT P6SM SKC=



000
FTUS43 KLMK 311100
TAFLEX
TAF
KLEX 311120Z 3112/0112 23010KT P6SM SCT150
     FM311400 25014G24KT P6SM FEW040
     FM312100 31008KT P6SM SKC
     FM010300 03005KT P6SM SKC=



000
FTUS43 KLMK 310500
TAFBWG
TAF
KBWG 310520Z 3106/0106 VRB05KT P6SM SCT150
     FM311600 26012G20KT P6SM FEW050 FEW250
     FM312000 31006KT P6SM SKC=



000
FTUS43 KLMK 310500
TAFSDF
TAF
KSDF 310520Z 3106/0112 VRB05KT P6SM BKN150
     FM311500 26013G22KT P6SM SKC
     FM311900 31008KT P6SM SKC
     FM010000 01003KT P6SM SKC=



000
FTUS43 KLMK 310500
TAFLEX
TAF
KLEX 310520Z 3106/0106 19006KT P6SM BKN150
     FM311400 25014G24KT P6SM FEW040
     FM312100 31008KT P6SM SKC
     FM010300 03005KT P6SM SKC=



000
FTUS43 KLMK 310500
TAFBWG
TAF
KBWG 310520Z 3106/0106 VRB05KT P6SM SCT150
     FM311600 26012G20KT P6SM FEW050 FEW250
     FM312000 31006KT P6SM SKC=



000
FTUS43 KLMK 310500
TAFSDF
TAF
KSDF 310520Z 3106/0112 VRB05KT P6SM BKN150
     FM311500 26013G22KT P6SM SKC
     FM311900 31008KT P6SM SKC
     FM010000 01003KT P6SM SKC=



000
FTUS43 KLMK 310500
TAFLEX
TAF
KLEX 310520Z 3106/0106 19006KT P6SM BKN150
     FM311400 25014G24KT P6SM FEW040
     FM312100 31008KT P6SM SKC
     FM010300 03005KT P6SM SKC=



000
FTUS43 KLMK 302300
TAFBWG
TAF
KBWG 302320Z 3100/3124 VRB03KT P6SM SCT250
     FM311700 26012G20KT P6SM SCT250=



000
FTUS43 KLMK 302300
TAFLEX
TAF
KLEX 302320Z 3100/3124 22005KT P6SM SCT250
     FM311500 26012G20KT P6SM SCT250=



000
FTUS43 KLMK 302300
TAFSDF
TAF
KSDF 302320Z 3100/0106 VRB04KT P6SM SCT250
     FM311500 26013G20KT P6SM SCT250=



000
FTUS43 KLMK 302300
TAFSDF
TAF
KSDF 302320Z 3100/0106 VRB04KT P6SM SCT250
     FM311500 26013G20KT P6SM SCT250=



000
FTUS43 KLMK 302300
TAFLEX
TAF
KLEX 302320Z 3100/3124 22005KT P6SM SCT250
     FM311500 26012G20KT P6SM SCT250=



000
FTUS43 KLMK 302300
TAFBWG
TAF
KBWG 302320Z 3100/3124 VRB03KT P6SM SCT250
     FM311700 26012G20KT P6SM SCT250=



000
FTUS43 KLMK 301800 AAA
TAFLEX
TAF AMD
KLEX 301817Z 3018/3118 28012G20KT P6SM FEW060 SCT250
     FM310000 20005KT P6SM SCT250
     FM311500 26013G20KT P6SM FEW035 FEW250=



000
FTUS43 KLMK 301800 AAA
TAFLEX
TAF AMD
KLEX 301817Z 3018/3118 28012G20KT P6SM FEW060 SCT250
     FM310000 20005KT P6SM SCT250
     FM311500 26013G20KT P6SM FEW035 FEW250=



000
FTUS43 KLMK 301700 AAA
TAFBWG
TAF AMD
KBWG 301737Z 3018/3118 33010KT P6SM SCT250
     FM302300 VRB03KT P6SM SCT250
     FM311500 26012G20KT P6SM FEW035=



000
FTUS43 KLMK 301700 AAA
TAFBWG
TAF AMD
KBWG 301737Z 3018/3118 33010KT P6SM SCT250
     FM302300 VRB03KT P6SM SCT250
     FM311500 26012G20KT P6SM FEW035=



000
FTUS43 KLMK 301700
TAFLEX
TAF
KLEX 301720Z 3018/3118 30009KT P6SM FEW040 SCT250
     FM310000 20005KT P6SM SCT250
     FM311500 26013G20KT P6SM FEW035 FEW250=



000
FTUS43 KLMK 301700
TAFBWG
TAF
KBWG 301720Z 3018/3118 33007KT P6SM SCT250
     FM302300 VRB03KT P6SM SCT250
     FM311500 26012G20KT P6SM FEW035=



000
FTUS43 KLMK 301700
TAFSDF
TAF
KSDF 301720Z 3018/3124 30011KT P6SM SCT250
     FM302300 20005KT P6SM SCT250
     FM311500 26013G20KT P6SM FEW035 FEW250=



000
FTUS43 KLMK 301700
TAFSDF
TAF
KSDF 301720Z 3018/3124 30011KT P6SM SCT250
     FM302300 20005KT P6SM SCT250
     FM311500 26013G20KT P6SM FEW035 FEW250=



000
FTUS43 KLMK 301700
TAFLEX
TAF
KLEX 301720Z 3018/3118 30009KT P6SM FEW040 SCT250
     FM310000 20005KT P6SM SCT250
     FM311500 26013G20KT P6SM FEW035 FEW250=



000
FTUS43 KLMK 301700
TAFBWG
TAF
KBWG 301720Z 3018/3118 33007KT P6SM SCT250
     FM302300 VRB03KT P6SM SCT250
     FM311500 26012G20KT P6SM FEW035=



000
FTUS43 KLMK 301600 AAA
TAFSDF
TAF AMD
KSDF 301626Z 3016/3118 30011KT P6SM SCT250
     FM302300 VRB05KT P6SM SCT250
     FM311300 24012KT P6SM FEW250=



000
FTUS43 KLMK 301600 AAA
TAFSDF
TAF AMD
KSDF 301626Z 3016/3118 30011KT P6SM SCT250
     FM302300 VRB05KT P6SM SCT250
     FM311300 24012KT P6SM FEW250=



000
FTUS43 KLMK 301500 AAA
TAFLEX
TAF AMD
KLEX 301506Z 3015/3112 30008KT P6SM FEW040 SCT250
     FM310000 VRB05KT P6SM SCT250=



000
FTUS43 KLMK 301500 AAA
TAFLEX
TAF AMD
KLEX 301506Z 3015/3112 30008KT P6SM FEW040 SCT250
     FM310000 VRB05KT P6SM SCT250=



000
FTUS43 KLMK 301100
TAFSDF
TAF
KSDF 301120Z 3012/3118 30007KT P6SM SCT250
     FM302300 VRB05KT P6SM SCT250
     FM311300 24012KT P6SM FEW250=



000
FTUS43 KLMK 301100
TAFLEX
TAF
KLEX 301120Z 3012/3112 30008KT P6SM SCT250
     FM310000 VRB05KT P6SM SCT250=



000
FTUS43 KLMK 301100
TAFLEX
TAF
KLEX 301120Z 3012/3112 30008KT P6SM SCT250
     FM310000 VRB05KT P6SM SCT250=



000
FTUS43 KLMK 301100
TAFBWG
TAF
KBWG 301120Z 3012/3112 33007KT P6SM SCT250
     FM302300 VRB03KT P6SM SCT250=



000
FTUS43 KLMK 301100
TAFBWG
TAF
KBWG 301120Z 3012/3112 33007KT P6SM SCT250
     FM302300 VRB03KT P6SM SCT250=



000
FTUS43 KLMK 301100
TAFSDF
TAF
KSDF 301120Z 3012/3118 30007KT P6SM SCT250
     FM302300 VRB05KT P6SM SCT250
     FM311300 24012KT P6SM FEW250=



000
FTUS43 KLMK 300500
TAFSDF
TAF
KSDF 300520Z 3006/3112 25010KT P6SM SCT040 OVC060
     FM300800 30008KT P6SM SCT060
     FM301100 30007KT P6SM SCT250
     FM302300 VRB05KT P6SM SCT250=



000
FTUS43 KLMK 300500
TAFLEX
TAF
KLEX 300520Z 3006/3106 24013G18KT P6SM VCSH OVC040
     FM300700 26009KT P6SM BKN040
     FM301000 30008KT P6SM SCT040
     FM301300 30008KT P6SM FEW250
     FM310000 VRB05KT P6SM SCT250=



000
FTUS43 KLMK 300500
TAFBWG
TAF
KBWG 300520Z 3006/3106 22010KT P6SM VCSH BKN040
     FM300800 24006KT P6SM BKN040
     FM301000 30005KT P6SM SCT050
     FM301400 31007KT P6SM SCT250
     FM302300 VRB03KT P6SM SCT250=



000
FTUS43 KLMK 300500
TAFSDF
TAF
KSDF 300520Z 3006/3112 25010KT P6SM SCT040 OVC060
     FM300800 30008KT P6SM SCT060
     FM301100 30007KT P6SM SCT250
     FM302300 VRB05KT P6SM SCT250=



000
FTUS43 KLMK 300500
TAFLEX
TAF
KLEX 300520Z 3006/3106 24013G18KT P6SM VCSH OVC040
     FM300700 26009KT P6SM BKN040
     FM301000 30008KT P6SM SCT040
     FM301300 30008KT P6SM FEW250
     FM310000 VRB05KT P6SM SCT250=



000
FTUS43 KLMK 300500
TAFBWG
TAF
KBWG 300520Z 3006/3106 22010KT P6SM VCSH BKN040
     FM300800 24006KT P6SM BKN040
     FM301000 30005KT P6SM SCT050
     FM301400 31007KT P6SM SCT250
     FM302300 VRB03KT P6SM SCT250=



000
FTUS43 KLMK 300300 AAA
TAFBWG
TAF AMD
KBWG 300320Z 3003/3024 21009KT P6SM BKN100
     FM300500 22012KT P6SM -RA BKN040
     FM300900 30005KT P6SM BKN050
     FM301200 33005KT P6SM SCT250=



000
FTUS43 KLMK 300300 AAA
TAFBWG
TAF AMD
KBWG 300320Z 3003/3024 21009KT P6SM BKN100
     FM300500 22012KT P6SM -RA BKN040
     FM300900 30005KT P6SM BKN050
     FM301200 33005KT P6SM SCT250=



000
FTUS43 KLMK 300300 AAA
TAFLEX
TAF AMD
KLEX 300319Z 3003/3024 23013KT P6SM -RA OVC040
     FM300700 27009KT P6SM BKN050
     FM301000 30008KT P6SM SCT040
     FM301200 30008KT P6SM SCT250=



000
FTUS43 KLMK 300300 AAA
TAFSDF
TAF AMD
KSDF 300318Z 3003/3106 24012KT P6SM -SHRA OVC040
     FM300700 30008KT P6SM BKN060
     FM301100 30008KT P6SM SCT250=



000
FTUS43 KLMK 300300 AAA
TAFSDF
TAF AMD
KSDF 300318Z 3003/3106 24012KT P6SM -SHRA OVC040
     FM300700 30008KT P6SM BKN060
     FM301100 30008KT P6SM SCT250=



000
FTUS43 KLMK 292300
TAFSDF
TAF
KSDF 292320Z 3000/3106 20010KT P6SM BKN150
     FM300100 21010KT 6SM -SHRA BR SCT035 BKN040
     FM300300 23011KT 6SM -SHRA BR BKN025
     FM300900 30008KT P6SM SCT040
     FM301200 30007KT P6SM SCT250=



000
FTUS43 KLMK 292300
TAFLEX
TAF
KLEX 292320Z 3000/3024 19012G18KT P6SM BKN150
     FM300200 20010KT P6SM VCSH BKN040
     FM300500 23010KT 6SM -SHRA BR BKN025
     FM301000 30008KT P6SM SCT040
     FM301200 30008KT P6SM SCT250=



000
FTUS43 KLMK 292300
TAFBWG
TAF
KBWG 292320Z 3000/3024 20012KT P6SM BKN250
     FM300400 20011KT P6SM VCSH BKN035
     FM300900 30005KT P6SM VCSH BKN025
     FM301200 33005KT P6SM SCT250=



000
FTUS43 KLMK 292300
TAFBWG
TAF
KBWG 292320Z 3000/3024 20012KT P6SM BKN250
     FM300400 20011KT P6SM VCSH BKN035
     FM300900 30005KT P6SM VCSH BKN025
     FM301200 33005KT P6SM SCT250=



000
FTUS43 KLMK 292300
TAFSDF
TAF
KSDF 292320Z 3000/3106 20010KT P6SM BKN150
     FM300100 21010KT 6SM -SHRA BR SCT035 BKN040
     FM300300 23011KT 6SM -SHRA BR BKN025
     FM300900 30008KT P6SM SCT040
     FM301200 30007KT P6SM SCT250=



000
FTUS43 KLMK 292300
TAFLEX
TAF
KLEX 292320Z 3000/3024 19012G18KT P6SM BKN150
     FM300200 20010KT P6SM VCSH BKN040
     FM300500 23010KT 6SM -SHRA BR BKN025
     FM301000 30008KT P6SM SCT040
     FM301200 30008KT P6SM SCT250=



000
FTUS43 KLMK 291900 AAA
TAFSDF
TAF AMD
KSDF 291932Z 2920/3024 18012G22KT P6SM SCT200
     FM292300 19012KT P6SM BKN040 BKN100
     FM300100 21011KT 5SM -SHRA BR SCT025 BKN035
     FM300200 23011KT 4SM -SHRA BR BKN025
     FM300900 29008KT P6SM SCT020=



000
FTUS43 KLMK 291900 AAA
TAFSDF
TAF AMD
KSDF 291932Z 2920/3024 18012G22KT P6SM SCT200
     FM292300 19012KT P6SM BKN040 BKN100
     FM300100 21011KT 5SM -SHRA BR SCT025 BKN035
     FM300200 23011KT 4SM -SHRA BR BKN025
     FM300900 29008KT P6SM SCT020=



000
FTUS43 KLMK 291700
TAFSDF
TAF
KSDF 291720Z 2918/3024 18012G22KT P6SM SCT200
     FM292300 19012KT P6SM BKN040 BKN100
     FM300100 21011KT 5SM -SHRA BR SCT025 BKN035
     FM300200 23011KT 4SM -SHRA BR BKN025
     FM300900 29008KT P6SM SCT020=



000
FTUS43 KLMK 291700
TAFLEX
TAF
KLEX 291720Z 2918/3018 18012G20KT P6SM SCT200
     FM300100 19012KT P6SM BKN040 BKN100
     FM300400 21012KT 6SM -SHRA BR SCT025 BKN035
     FM300600 23011KT 4SM -SHRA BR BKN025
     FM301100 27008KT P6SM SCT020=



000
FTUS43 KLMK 291700
TAFBWG
TAF
KBWG 291720Z 2918/3018 19011G20KT P6SM FEW200
     FM300400 20011KT 6SM -SHRA BR BKN035
     FM300600 22009KT 4SM -SHRA BR BKN025
     FM301100 27005KT P6SM SCT020=



000
FTUS43 KLMK 291700
TAFSDF
TAF
KSDF 291720Z 2918/3024 18012G22KT P6SM SCT200
     FM292300 19012KT P6SM BKN040 BKN100
     FM300100 21011KT 5SM -SHRA BR SCT025 BKN035
     FM300200 23011KT 4SM -SHRA BR BKN025
     FM300900 29008KT P6SM SCT020=



000
FTUS43 KLMK 291700
TAFLEX
TAF
KLEX 291720Z 2918/3018 18012G20KT P6SM SCT200
     FM300100 19012KT P6SM BKN040 BKN100
     FM300400 21012KT 6SM -SHRA BR SCT025 BKN035
     FM300600 23011KT 4SM -SHRA BR BKN025
     FM301100 27008KT P6SM SCT020=



000
FTUS43 KLMK 291700
TAFBWG
TAF
KBWG 291720Z 2918/3018 19011G20KT P6SM FEW200
     FM300400 20011KT 6SM -SHRA BR BKN035
     FM300600 22009KT 4SM -SHRA BR BKN025
     FM301100 27005KT P6SM SCT020=



000
FTUS43 KLMK 291600 AAA
TAFLEX
TAF AMD
KLEX 291609Z 2916/3012 18014G24KT P6SM SCT200
     FM292300 19012KT P6SM BKN040 BKN100
     FM300200 21012KT 6SM -SHRA BR SCT025 BKN035
     FM300400 23011KT 4SM -SHRA BR BKN025
     FM301000 27008KT P6SM SCT020=



000
FTUS43 KLMK 291600 AAA
TAFBWG
TAF AMD
KBWG 291609Z 2916/3012 18011G20KT P6SM FEW200
     FM300200 20011KT 6SM -SHRA BR BKN035
     FM300400 22009KT 4SM -SHRA BR BKN025
     FM300900 27005KT P6SM SCT020=



000
FTUS43 KLMK 291600 AAA
TAFSDF
TAF AMD
KSDF 291608Z 2916/3018 17012G22KT P6SM SCT200
     FM292200 19012KT P6SM BKN040 BKN100
     FM300000 21011KT 6SM -SHRA BR SCT025 BKN035
     FM300200 23011KT 4SM -SHRA BR BKN025
     FM300700 29008KT P6SM SCT020=



000
FTUS43 KLMK 291100
TAFSDF
TAF
KSDF 291120Z 2912/3018 16008KT P6SM FEW250
     FM291600 18014G24KT P6SM SCT200
     FM292200 19012KT P6SM BKN040 BKN100
     FM300000 21011KT 6SM -SHRA BR SCT025 BKN035
     FM300200 23011KT 4SM -SHRA BR BKN025
     FM300700 29008KT P6SM SCT020=



000
FTUS43 KLMK 291100
TAFBWG
TAF
KBWG 291120Z 2912/3012 VRB05KT P6SM FEW250
     FM291400 17011KT P6SM SCT200
     FM291600 18014G22KT P6SM FEW050 BKN200
     FM300200 20011KT 6SM -SHRA BR BKN035
     FM300400 22009KT 4SM -SHRA BR BKN025
     FM300900 27005KT P6SM SCT020=



000
FTUS43 KLMK 291100
TAFBWG
TAF
KBWG 291120Z 2912/3012 VRB05KT P6SM FEW250
     FM291400 17011KT P6SM SCT200
     FM291600 18014G22KT P6SM FEW050 BKN200
     FM300200 20011KT 6SM -SHRA BR BKN035
     FM300400 22009KT 4SM -SHRA BR BKN025
     FM300900 27005KT P6SM SCT020=



000
FTUS43 KLMK 291100
TAFLEX
TAF
KLEX 291120Z 2912/3012 16008KT P6SM FEW250
     FM291600 18014G24KT P6SM SCT200
     FM292300 19012KT P6SM BKN040 BKN100
     FM300200 21012KT 6SM -SHRA BR SCT025 BKN035
     FM300400 23011KT 4SM -SHRA BR BKN025
     FM301000 27008KT P6SM SCT020=



000
FTUS43 KLMK 291100
TAFLEX
TAF
KLEX 291120Z 2912/3012 16008KT P6SM FEW250
     FM291600 18014G24KT P6SM SCT200
     FM292300 19012KT P6SM BKN040 BKN100
     FM300200 21012KT 6SM -SHRA BR SCT025 BKN035
     FM300400 23011KT 4SM -SHRA BR BKN025
     FM301000 27008KT P6SM SCT020=



000
FTUS43 KLMK 291100
TAFSDF
TAF
KSDF 291120Z 2912/3018 16008KT P6SM FEW250
     FM291600 18014G24KT P6SM SCT200
     FM292200 19012KT P6SM BKN040 BKN100
     FM300000 21011KT 6SM -SHRA BR SCT025 BKN035
     FM300200 23011KT 4SM -SHRA BR BKN025
     FM300700 29008KT P6SM SCT020=



    US Dept of Commerce
    National Oceanic and Atmospheric Administration
    National Weather Service
    1325 East West Highway
    Silver Spring, MD 20910
    Page Author: NWS Internet Services Team
Disclaimer
Information Quality
Credits
Glossary
Privacy Policy
Freedom of Information Act (FOIA)
About Us
Career Opportunities